createdAt,value
2023-05-08T00:00:06.726Z,82.53
2023-05-08T00:01:06.746Z,82.42
2023-05-08T00:02:06.765Z,82.73
2023-05-08T00:03:06.756Z,82.83
2023-05-08T00:04:06.919Z,81.60
2023-05-08T00:05:06.950Z,81.20
2023-05-08T00:06:06.685Z,80.75
2023-05-08T00:07:06.715Z,82.12
2023-05-08T00:08:06.694Z,81.57
2023-05-08T00:09:06.709Z,81.77
2023-05-08T00:10:06.675Z,81.98
2023-05-08T00:11:06.683Z,81.46
2023-05-08T00:12:07.675Z,81.02
2023-05-08T00:13:06.712Z,80.96
2023-05-08T00:14:06.692Z,81.77
2023-05-08T00:15:06.684Z,82.18
2023-05-08T00:16:06.675Z,81.71
2023-05-08T00:17:06.729Z,81.71
2023-05-08T00:18:06.657Z,82.22
2023-05-08T00:19:06.605Z,82.59
2023-05-08T00:20:06.626Z,81.57
2023-05-08T00:21:06.573Z,81.60
2023-05-08T00:22:06.612Z,81.91
2023-05-08T00:23:06.587Z,81.60
2023-05-08T00:24:06.593Z,82.53
2023-05-08T00:25:06.551Z,81.91
2023-05-08T00:26:07.584Z,81.91
2023-05-08T00:27:06.532Z,82.42
2023-05-08T00:28:06.537Z,82.63
2023-05-08T00:29:06.983Z,81.51
2023-05-08T00:30:07.528Z,81.85
2023-05-08T00:31:06.536Z,81.81
2023-05-08T00:32:06.567Z,81.81
2023-05-08T00:33:06.530Z,81.26
2023-05-08T00:34:06.506Z,81.60
2023-05-08T00:35:06.490Z,81.67
2023-05-08T00:36:06.493Z,81.60
2023-05-08T00:37:06.502Z,81.30
2023-05-08T00:38:06.484Z,81.57
2023-05-08T00:39:06.491Z,81.51
2023-05-08T00:40:06.454Z,81.30
2023-05-08T00:41:06.434Z,81.67
2023-05-08T00:42:06.466Z,81.16
2023-05-08T00:43:06.419Z,81.71
2023-05-08T00:44:06.408Z,81.81
2023-05-08T00:45:06.381Z,81.51
2023-05-08T00:46:06.439Z,80.89
2023-05-08T00:47:06.518Z,81.16
2023-05-08T00:48:06.411Z,81.77
2023-05-08T00:49:06.382Z,81.77
2023-05-08T00:50:06.381Z,80.85
2023-05-08T00:51:06.373Z,81.16
2023-05-08T00:52:06.374Z,80.00
2023-05-08T00:53:06.380Z,79.69
2023-05-08T00:54:06.361Z,80.58
2023-05-08T00:55:06.368Z,81.71
2023-05-08T00:56:06.331Z,82.01
2023-05-08T00:57:06.350Z,81.46
2023-05-08T00:58:06.327Z,81.16
2023-05-08T00:59:06.339Z,80.82
2023-05-08T01:00:06.363Z,81.12
2023-05-08T01:01:06.355Z,81.12
2023-05-08T01:02:06.281Z,81.98
2023-05-08T01:03:06.318Z,81.46
2023-05-08T01:04:06.304Z,81.46
2023-05-08T01:05:06.270Z,81.60
2023-05-08T01:06:06.262Z,82.53
2023-05-08T01:07:06.283Z,82.32
2023-05-08T01:08:06.269Z,82.42
2023-05-08T01:09:06.238Z,82.53
2023-05-08T01:10:06.241Z,82.42
2023-05-08T01:11:07.228Z,82.53
2023-05-08T01:12:06.218Z,83.04
2023-05-08T01:13:06.227Z,82.87
2023-05-08T01:14:06.303Z,83.69
2023-05-08T01:15:06.207Z,82.97
2023-05-08T01:16:06.222Z,83.18
2023-05-08T01:17:06.195Z,83.18
2023-05-08T01:18:07.187Z,83.04
2023-05-08T01:19:06.207Z,82.97
2023-05-08T01:20:06.198Z,83.38
2023-05-08T01:21:06.171Z,83.28
2023-05-08T01:22:06.172Z,82.53
2023-05-08T01:23:06.152Z,81.91
2023-05-08T01:24:06.146Z,82.32
2023-05-08T01:25:06.165Z,82.32
2023-05-08T01:26:06.107Z,82.63
2023-05-08T01:27:06.141Z,82.46
2023-05-08T01:28:06.109Z,82.56
2023-05-08T01:29:06.106Z,81.30
2023-05-08T01:30:06.122Z,81.71
2023-05-08T01:31:06.064Z,82.32
2023-05-08T01:32:06.076Z,81.60
2023-05-08T01:33:06.188Z,81.71
2023-05-08T01:34:06.098Z,81.30
2023-05-08T01:35:06.082Z,82.53
2023-05-08T01:36:06.110Z,82.42
2023-05-08T01:37:06.022Z,82.53
2023-05-08T01:38:06.046Z,83.07
2023-05-08T01:39:06.028Z,83.24
2023-05-08T01:40:06.015Z,83.48
2023-05-08T01:41:06.062Z,82.97
2023-05-08T01:42:06.045Z,84.30
2023-05-08T01:43:06.009Z,83.69
2023-05-08T01:44:06.003Z,83.18
2023-05-08T01:45:05.996Z,83.04
2023-05-08T01:46:05.974Z,82.67
2023-05-08T01:47:06.153Z,83.18
2023-05-08T01:48:06.986Z,82.97
2023-05-08T01:49:06.008Z,84.20
2023-05-08T01:50:05.954Z,84.14
2023-05-08T01:51:05.933Z,84.65
2023-05-08T01:52:05.942Z,84.55
2023-05-08T01:53:05.948Z,84.14
2023-05-08T01:54:08.041Z,83.18
2023-05-08T01:55:05.928Z,83.18
2023-05-08T01:56:05.889Z,83.28
2023-05-08T01:57:05.895Z,82.97
2023-05-08T01:58:05.937Z,82.53
2023-05-08T01:59:05.894Z,82.56
2023-05-08T02:00:05.904Z,82.22
2023-05-08T02:01:05.901Z,82.56
2023-05-08T02:02:05.891Z,83.07
2023-05-08T02:03:05.943Z,83.48
2023-05-08T02:04:05.895Z,83.38
2023-05-08T02:05:05.878Z,83.18
2023-05-08T02:06:05.820Z,83.28
2023-05-08T02:07:05.833Z,83.59
2023-05-08T02:08:06.801Z,83.07
2023-05-08T02:09:05.810Z,82.83
2023-05-08T02:10:05.821Z,82.53
2023-05-08T02:11:05.789Z,83.24
2023-05-08T02:12:05.792Z,82.79
2023-05-08T02:13:05.833Z,81.51
2023-05-08T02:14:05.818Z,82.42
2023-05-08T02:15:05.795Z,82.32
2023-05-08T02:16:05.768Z,82.42
2023-05-08T02:17:05.811Z,82.32
2023-05-08T02:18:05.808Z,81.46
2023-05-08T02:19:05.738Z,81.60
2023-05-08T02:20:05.795Z,82.01
2023-05-08T02:21:05.730Z,83.01
2023-05-08T02:22:05.741Z,83.38
2023-05-08T02:23:05.702Z,83.79
2023-05-08T02:24:05.715Z,84.55
2023-05-08T02:25:05.689Z,84.34
2023-05-08T02:26:05.732Z,84.65
2023-05-08T02:27:05.712Z,85.50
2023-05-08T02:28:05.690Z,85.16
2023-05-08T02:29:05.684Z,84.71
2023-05-08T02:30:05.657Z,84.41
2023-05-08T02:31:05.700Z,83.79
2023-05-08T02:32:05.646Z,83.85
2023-05-08T02:33:05.698Z,82.73
2023-05-08T02:34:05.662Z,83.04
2023-05-08T02:35:05.637Z,82.83
2023-05-08T02:36:05.612Z,82.53
2023-05-08T02:37:05.649Z,82.53
2023-05-08T02:38:05.615Z,81.40
2023-05-08T02:39:05.595Z,81.37
2023-05-08T02:40:05.594Z,81.67
2023-05-08T02:41:05.585Z,81.26
2023-05-08T02:42:05.614Z,81.37
2023-05-08T02:43:05.619Z,81.81
2023-05-08T02:44:05.573Z,83.38
2023-05-08T02:45:05.555Z,84.34
2023-05-08T02:46:05.599Z,84.99
2023-05-08T02:47:07.036Z,84.95
2023-05-08T02:48:06.845Z,84.44
2023-05-08T02:49:05.537Z,83.83
2023-05-08T02:50:05.515Z,84.38
2023-05-08T02:51:06.524Z,84.28
2023-05-08T02:52:05.535Z,84.95
2023-05-08T02:53:05.512Z,84.44
2023-05-08T02:54:05.488Z,84.24
2023-05-08T02:55:05.547Z,84.34
2023-05-08T02:56:05.530Z,84.34
2023-05-08T02:57:05.497Z,84.95
2023-05-08T02:58:05.496Z,84.85
2023-05-08T02:59:05.455Z,83.79
2023-05-08T03:00:05.455Z,84.20
2023-05-08T03:01:05.494Z,83.54
2023-05-08T03:02:05.457Z,83.34
2023-05-08T03:03:05.537Z,82.73
2023-05-08T03:04:05.443Z,82.93
2023-05-08T03:05:05.434Z,83.34
2023-05-08T03:06:05.427Z,83.18
2023-05-08T03:07:05.416Z,83.04
2023-05-08T03:08:05.417Z,82.93
2023-05-08T03:09:05.396Z,82.93
2023-05-08T03:10:05.373Z,82.69
2023-05-08T03:11:05.372Z,82.28
2023-05-08T03:12:05.364Z,81.87
2023-05-08T03:13:05.404Z,81.57
2023-05-08T03:14:05.452Z,82.22
2023-05-08T03:15:05.351Z,82.63
2023-05-08T03:16:05.440Z,82.42
2023-05-08T03:17:05.351Z,82.93
2023-05-08T03:18:05.459Z,82.93
2023-05-08T03:19:05.353Z,82.79
2023-05-08T03:20:05.322Z,83.44
2023-05-08T03:21:05.322Z,83.24
2023-05-08T03:22:05.324Z,82.83
2023-05-08T03:23:05.321Z,82.22
2023-05-08T03:24:05.323Z,82.32
2023-05-08T03:25:05.309Z,82.32
2023-05-08T03:26:05.277Z,82.63
2023-05-08T03:27:05.271Z,83.00
2023-05-08T03:28:05.266Z,82.83
2023-05-08T03:29:05.289Z,82.83
2023-05-08T03:30:05.265Z,83.14
2023-05-08T03:31:05.260Z,83.34
2023-05-08T03:32:05.236Z,82.89
2023-05-08T03:33:05.283Z,82.93
2023-05-08T03:34:05.237Z,82.83
2023-05-08T03:35:05.263Z,81.30
2023-05-08T03:36:05.251Z,82.22
2023-05-08T03:37:05.227Z,82.42
2023-05-08T03:38:05.189Z,82.97
2023-05-08T03:39:05.172Z,83.38
2023-05-08T03:40:05.183Z,83.89
2023-05-08T03:41:05.176Z,84.14
2023-05-08T03:42:05.188Z,83.93
2023-05-08T03:43:05.340Z,83.73
2023-05-08T03:44:05.187Z,84.44
2023-05-08T03:45:05.163Z,83.89
2023-05-08T03:46:05.166Z,83.54
2023-05-08T03:47:05.179Z,83.14
2023-05-08T03:48:05.180Z,83.24
2023-05-08T03:49:05.136Z,83.59
2023-05-08T03:50:05.203Z,83.54
2023-05-08T03:51:05.108Z,82.93
2023-05-08T03:52:05.140Z,83.14
2023-05-08T03:53:05.243Z,83.04
2023-05-08T03:54:05.099Z,82.93
2023-05-08T03:55:05.086Z,83.69
2023-05-08T03:56:05.080Z,84.00
2023-05-08T03:57:05.118Z,83.89
2023-05-08T03:58:05.104Z,84.61
2023-05-08T03:59:05.053Z,84.65
2023-05-08T04:00:05.067Z,85.16
2023-05-08T04:01:05.066Z,85.22
2023-05-08T04:02:05.057Z,84.81
2023-05-08T04:03:05.173Z,84.81
2023-05-08T04:04:05.192Z,84.16
2023-05-08T04:05:05.018Z,84.91
2023-05-08T04:06:05.011Z,84.91
2023-05-08T04:07:05.031Z,85.36
2023-05-08T04:08:05.046Z,85.22
2023-05-08T04:09:05.039Z,85.22
2023-05-08T04:10:04.984Z,85.77
2023-05-08T04:11:04.979Z,86.29
2023-05-08T04:12:05.010Z,86.24
2023-05-08T04:13:05.078Z,85.32
2023-05-08T04:14:04.964Z,84.91
2023-05-08T04:15:04.952Z,85.42
2023-05-08T04:16:04.936Z,85.22
2023-05-08T04:17:05.009Z,84.91
2023-05-08T04:18:04.985Z,85.32
2023-05-08T04:19:04.962Z,85.32
2023-05-08T04:20:04.905Z,85.42
2023-05-08T04:21:04.912Z,86.18
2023-05-08T04:22:04.912Z,86.29
2023-05-08T04:23:04.891Z,86.69
2023-05-08T04:24:04.957Z,86.49
2023-05-08T04:25:04.887Z,86.44
2023-05-08T04:26:05.662Z,86.49
2023-05-08T04:27:05.960Z,86.12
2023-05-08T04:28:04.858Z,86.22
2023-05-08T04:29:04.880Z,86.29
2023-05-08T04:30:04.864Z,85.22
2023-05-08T04:31:04.856Z,84.91
2023-05-08T04:32:04.905Z,85.47
2023-05-08T04:33:04.868Z,85.06
2023-05-08T04:34:04.922Z,86.08
2023-05-08T04:35:04.817Z,84.95
2023-05-08T04:36:04.807Z,85.16
2023-05-08T04:37:04.813Z,85.42
2023-05-08T04:38:04.823Z,85.42
2023-05-08T04:39:04.812Z,85.28
2023-05-08T04:40:04.807Z,84.71
2023-05-08T04:41:04.829Z,84.71
2023-05-08T04:42:04.821Z,84.91
2023-05-08T04:43:04.754Z,84.91
2023-05-08T04:44:04.771Z,84.61
2023-05-08T04:45:04.864Z,83.95
2023-05-08T04:46:04.786Z,83.85
2023-05-08T04:47:04.723Z,83.85
2023-05-08T04:48:04.815Z,83.54
2023-05-08T04:49:04.754Z,83.04
2023-05-08T04:50:04.780Z,83.40
2023-05-08T04:51:04.738Z,84.01
2023-05-08T04:52:04.751Z,83.00
2023-05-08T04:53:04.710Z,82.89
2023-05-08T04:54:04.718Z,82.89
2023-05-08T04:55:04.708Z,83.00
2023-05-08T04:56:04.676Z,82.79
2023-05-08T04:57:04.721Z,83.92
2023-05-08T04:58:04.672Z,83.10
2023-05-08T04:59:04.689Z,82.79
2023-05-08T05:00:04.665Z,83.00
2023-05-08T05:01:04.668Z,82.79
2023-05-08T05:02:04.722Z,82.39
2023-05-08T05:03:04.673Z,82.49
2023-05-08T05:04:04.781Z,81.53
2023-05-08T05:05:04.628Z,80.71
2023-05-08T05:06:04.630Z,80.96
2023-05-08T05:07:04.638Z,81.53
2023-05-08T05:08:04.625Z,81.12
2023-05-08T05:09:04.611Z,79.45
2023-05-08T05:10:04.607Z,79.14
2023-05-08T05:11:04.592Z,80.47
2023-05-08T05:12:04.612Z,79.35
2023-05-08T05:13:04.650Z,80.27
2023-05-08T05:14:04.611Z,82.04
2023-05-08T05:15:04.542Z,81.53
2023-05-08T05:16:04.619Z,81.57
2023-05-08T05:17:04.552Z,81.53
2023-05-08T05:18:04.659Z,81.73
2023-05-08T05:19:04.544Z,81.90
2023-05-08T05:20:04.513Z,80.78
2023-05-08T05:21:04.511Z,79.32
2023-05-08T05:22:04.594Z,79.45
2023-05-08T05:23:04.602Z,79.32
2023-05-08T05:24:04.499Z,80.16
2023-05-08T05:25:04.526Z,80.37
2023-05-08T05:26:04.580Z,80.55
2023-05-08T05:27:04.472Z,82.67
2023-05-08T05:28:04.485Z,83.48
2023-05-08T05:29:04.475Z,83.38
2023-05-08T05:30:04.439Z,83.69
2023-05-08T05:31:04.488Z,82.83
2023-05-08T05:32:04.435Z,84.16
2023-05-08T05:33:04.508Z,83.34
2023-05-08T05:34:04.461Z,83.61
2023-05-08T05:35:04.438Z,83.92
2023-05-08T05:36:04.413Z,83.57
2023-05-08T05:37:04.400Z,82.35
2023-05-08T05:38:04.388Z,81.32
2023-05-08T05:39:04.410Z,80.88
2023-05-08T05:40:04.382Z,80.16
2023-05-08T05:41:04.406Z,80.37
2023-05-08T05:42:04.399Z,79.35
2023-05-08T05:43:04.390Z,79.28
2023-05-08T05:44:04.345Z,80.07
2023-05-08T05:45:04.420Z,80.16
2023-05-08T05:46:04.340Z,79.96
2023-05-08T05:47:04.348Z,79.32
2023-05-08T05:48:04.395Z,78.60
2023-05-08T05:49:04.342Z,79.93
2023-05-08T05:50:04.328Z,79.62
2023-05-08T05:51:04.350Z,79.52
2023-05-08T05:52:04.290Z,80.23
2023-05-08T05:53:04.278Z,79.93
2023-05-08T05:54:04.371Z,79.48
2023-05-08T05:55:04.300Z,78.87
2023-05-08T05:56:04.280Z,77.03
2023-05-08T05:57:04.281Z,77.85
2023-05-08T05:58:04.233Z,76.90
2023-05-08T05:59:04.242Z,77.17
2023-05-08T06:00:04.216Z,78.30
2023-05-08T06:01:04.212Z,78.91
2023-05-08T06:02:04.291Z,79.45
2023-05-08T06:03:04.309Z,80.16
2023-05-08T06:04:04.302Z,80.78
2023-05-08T06:05:04.177Z,80.33
2023-05-08T06:06:04.161Z,79.27
2023-05-08T06:07:04.179Z,78.97
2023-05-08T06:08:04.242Z,78.32
2023-05-08T06:09:04.218Z,77.20
2023-05-08T06:10:04.183Z,78.36
2023-05-08T06:11:04.207Z,78.87
2023-05-08T06:12:04.135Z,78.70
2023-05-08T06:13:04.134Z,79.93
2023-05-08T06:14:04.100Z,79.21
2023-05-08T06:15:04.083Z,79.07
2023-05-08T06:16:04.115Z,79.27
2023-05-08T06:17:04.086Z,79.14
2023-05-08T06:18:04.254Z,78.83
2023-05-08T06:19:04.082Z,78.73
2023-05-08T06:20:04.094Z,79.41
2023-05-08T06:21:04.088Z,80.54
2023-05-08T06:22:04.050Z,81.45
2023-05-08T06:23:04.090Z,81.25
2023-05-08T06:24:04.024Z,80.64
2023-05-08T06:25:04.053Z,80.13
2023-05-08T06:26:04.031Z,80.40
2023-05-08T06:27:04.027Z,79.03
2023-05-08T06:28:04.053Z,79.00
2023-05-08T06:29:04.079Z,77.95
2023-05-08T06:30:03.984Z,77.64
2023-05-08T06:31:04.053Z,80.27
2023-05-08T06:32:03.994Z,80.98
2023-05-08T06:33:04.032Z,81.70
2023-05-08T06:34:03.974Z,81.15
2023-05-08T06:35:03.953Z,81.38
2023-05-08T06:36:03.999Z,80.36
2023-05-08T06:37:03.975Z,78.63
2023-05-08T06:38:03.938Z,79.00
2023-05-08T06:39:03.979Z,77.87
2023-05-08T06:40:11.996Z,77.06
2023-05-08T06:41:05.942Z,78.15
2023-05-08T06:42:03.904Z,77.13
2023-05-08T06:43:03.930Z,77.57
2023-05-08T06:44:03.912Z,79.24
2023-05-08T06:45:03.901Z,80.19
2023-05-08T06:46:04.001Z,80.26
2023-05-08T06:47:03.886Z,79.24
2023-05-08T06:48:03.892Z,80.09
2023-05-08T06:49:03.854Z,80.46
2023-05-08T06:50:03.866Z,80.46
2023-05-08T06:51:03.856Z,78.63
2023-05-08T06:52:03.853Z,82.33
2023-05-08T06:53:03.847Z,79.99
2023-05-08T06:54:03.839Z,79.11
2023-05-08T06:55:03.839Z,80.94
2023-05-08T06:56:03.810Z,81.04
2023-05-08T06:57:03.839Z,80.23
2023-05-08T06:58:03.807Z,79.89
2023-05-08T06:59:08.255Z,80.91
2023-05-08T07:00:05.781Z,79.27
2023-05-08T07:01:03.776Z,78.91
2023-05-08T07:02:03.830Z,79.32
2023-05-08T07:03:03.842Z,80.70
2023-05-08T07:04:03.750Z,81.01
2023-05-08T07:05:03.818Z,79.89
2023-05-08T07:06:03.725Z,81.38
2023-05-08T07:07:03.808Z,80.42
2023-05-08T07:08:03.767Z,78.35
2023-05-08T07:09:03.760Z,78.11
2023-05-08T07:10:04.616Z,76.48
2023-05-08T07:11:03.691Z,76.59
2023-05-08T07:12:03.679Z,76.72
2023-05-08T07:13:03.722Z,77.03
2023-05-08T07:14:03.638Z,77.81
2023-05-08T07:15:13.881Z,78.63
2023-05-08T07:16:05.672Z,80.02
2023-05-08T07:17:03.662Z,78.01
2023-05-08T07:18:03.686Z,76.95
2023-05-08T07:19:03.620Z,76.95
2023-05-08T07:20:03.636Z,76.25
2023-05-08T07:21:03.617Z,78.62
2023-05-08T07:22:03.780Z,75.37
2023-05-08T07:23:03.589Z,76.76
2023-05-08T07:24:03.700Z,77.87
2023-05-08T07:25:03.705Z,77.20
2023-05-08T07:26:03.570Z,77.06
2023-05-08T07:27:03.578Z,77.44
2023-05-08T07:28:03.553Z,76.92
2023-05-08T07:29:03.542Z,76.11
2023-05-08T07:30:03.562Z,76.92
2023-05-08T07:31:03.593Z,76.86
2023-05-08T07:32:03.583Z,77.10
2023-05-08T07:33:03.544Z,80.02
2023-05-08T07:34:03.526Z,78.86
2023-05-08T07:35:03.487Z,76.92
2023-05-08T07:36:03.538Z,77.91
2023-05-08T07:37:03.455Z,76.89
2023-05-08T07:38:03.474Z,75.37
2023-05-08T07:39:03.469Z,77.40
2023-05-08T07:40:03.456Z,76.92
2023-05-08T07:41:03.522Z,77.03
2023-05-08T07:42:03.469Z,77.23
2023-05-08T07:43:03.436Z,78.31
2023-05-08T07:44:03.415Z,76.75
2023-05-08T07:45:03.419Z,77.09
2023-05-08T07:46:03.415Z,76.89
2023-05-08T07:47:03.424Z,79.09
2023-05-08T07:48:03.433Z,78.81
2023-05-08T07:49:03.358Z,75.26
2023-05-08T07:50:03.400Z,76.48
2023-05-08T07:51:03.393Z,75.87
2023-05-08T07:52:03.403Z,75.09
2023-05-08T07:53:03.402Z,76.82
2023-05-08T07:54:03.344Z,76.31
2023-05-08T07:55:03.347Z,77.73
2023-05-08T07:56:03.352Z,76.17
2023-05-08T07:57:03.379Z,75.02
2023-05-08T07:58:03.367Z,74.88
2023-05-08T07:59:03.416Z,75.84
2023-05-08T08:00:03.334Z,76.25
2023-05-08T08:01:03.296Z,76.72
2023-05-08T08:02:03.354Z,77.06
2023-05-08T08:03:03.343Z,76.82
2023-05-08T08:04:03.388Z,76.54
2023-05-08T08:05:03.261Z,76.03
2023-05-08T08:06:03.257Z,75.02
2023-05-08T08:07:03.248Z,76.85
2023-05-08T08:08:03.277Z,75.09
2023-05-08T08:09:03.229Z,74.24
2023-05-08T08:10:03.228Z,74.79
2023-05-08T08:11:03.939Z,76.10
2023-05-08T08:12:04.177Z,75.80
2023-05-08T08:13:03.333Z,76.21
2023-05-08T08:14:03.238Z,75.87
2023-05-08T08:15:03.177Z,76.45
2023-05-08T08:16:03.181Z,78.38
2023-05-08T08:17:03.190Z,76.86
2023-05-08T08:18:03.170Z,76.45
2023-05-08T08:19:03.154Z,77.97
2023-05-08T08:20:03.152Z,78.44
2023-05-08T08:21:03.194Z,77.02
2023-05-08T08:22:03.167Z,77.12
2023-05-08T08:23:03.110Z,76.82
2023-05-08T08:24:03.161Z,76.61
2023-05-08T08:25:03.119Z,76.58
2023-05-08T08:26:03.087Z,76.07
2023-05-08T08:27:03.098Z,76.85
2023-05-08T08:28:03.061Z,76.10
2023-05-08T08:29:03.141Z,76.07
2023-05-08T08:30:15.914Z,77.29
2023-05-08T08:31:05.048Z,76.48
2023-05-08T08:32:03.056Z,76.44
2023-05-08T08:33:03.084Z,76.61
2023-05-08T08:34:03.040Z,77.72
2023-05-08T08:35:03.020Z,76.44
2023-05-08T08:36:03.018Z,74.98
2023-05-08T08:37:03.044Z,76.06
2023-05-08T08:38:02.988Z,75.12
2023-05-08T08:39:02.968Z,74.57
2023-05-08T08:40:02.980Z,73.12
2023-05-08T08:41:03.014Z,72.08
2023-05-08T08:42:02.951Z,71.26
2023-05-08T08:43:02.947Z,71.03
2023-05-08T08:44:02.940Z,70.25
2023-05-08T08:45:03.013Z,69.85
2023-05-08T08:46:03.012Z,72.14
2023-05-08T08:47:02.927Z,74.07
2023-05-08T08:48:03.028Z,76.46
2023-05-08T08:49:02.921Z,75.82
2023-05-08T08:50:02.920Z,71.84
2023-05-08T08:51:02.916Z,72.11
2023-05-08T08:52:02.930Z,74.40
2023-05-08T08:53:02.907Z,73.28
2023-05-08T08:54:02.911Z,70.42
2023-05-08T08:55:02.912Z,70.29
2023-05-08T08:56:02.899Z,68.95
2023-05-08T08:57:02.853Z,69.45
2023-05-08T08:58:02.868Z,69.01
2023-05-08T08:59:02.834Z,70.32
2023-05-08T09:00:02.848Z,70.62
2023-05-08T09:01:02.925Z,67.77
2023-05-08T09:02:02.857Z,69.08
2023-05-08T09:03:02.985Z,68.77
2023-05-08T09:04:02.975Z,66.93
2023-05-08T09:05:02.832Z,67.71
2023-05-08T09:06:02.901Z,63.75
2023-05-08T09:07:02.799Z,64.12
2023-05-08T09:08:02.813Z,67.03
2023-05-08T09:09:02.800Z,67.57
2023-05-08T09:10:02.843Z,67.54
2023-05-08T09:11:02.770Z,66.60
2023-05-08T09:12:02.751Z,64.89
2023-05-08T09:13:02.803Z,64.86
2023-05-08T09:14:02.761Z,65.73
2023-05-08T09:15:02.870Z,68.78
2023-05-08T09:16:02.775Z,63.15
2023-05-08T09:17:02.846Z,62.85
2023-05-08T09:18:02.958Z,64.76
2023-05-08T09:19:03.912Z,63.25
2023-05-08T09:20:02.704Z,64.89
2023-05-08T09:21:02.695Z,65.41
2023-05-08T09:22:02.771Z,67.06
2023-05-08T09:23:02.661Z,68.67
2023-05-08T09:24:03.689Z,67.73
2023-05-08T09:25:02.702Z,67.66
2023-05-08T09:26:02.717Z,68.07
2023-05-08T09:27:02.680Z,67.83
2023-05-08T09:28:02.846Z,67.56
2023-05-08T09:29:02.679Z,66.58
2023-05-08T09:30:02.684Z,66.48
2023-05-08T09:31:02.679Z,67.56
2023-05-08T09:32:02.700Z,67.76
2023-05-08T09:33:02.808Z,67.97
2023-05-08T09:34:02.630Z,69.45
2023-05-08T09:35:02.722Z,67.90
2023-05-08T09:36:02.657Z,65.99
2023-05-08T09:37:02.635Z,67.77
2023-05-08T09:38:02.679Z,67.77
2023-05-08T09:39:02.653Z,67.27
2023-05-08T09:40:02.611Z,67.57
2023-05-08T09:41:02.618Z,67.67
2023-05-08T09:42:02.607Z,66.96
2023-05-08T09:43:02.603Z,64.51
2023-05-08T09:44:02.593Z,67.47
2023-05-08T09:45:02.564Z,64.58
2023-05-08T09:46:02.613Z,64.44
2023-05-08T09:47:02.568Z,65.12
2023-05-08T09:48:02.671Z,67.07
2023-05-08T09:49:02.636Z,67.44
2023-05-08T09:50:02.573Z,61.98
2023-05-08T09:51:02.553Z,60.91
2023-05-08T09:52:02.579Z,62.52
2023-05-08T09:53:02.518Z,65.01
2023-05-08T09:54:02.530Z,65.85
2023-05-08T09:55:02.508Z,68.77
2023-05-08T09:56:02.507Z,71.97
2023-05-08T09:57:02.509Z,65.62
2023-05-08T09:58:02.513Z,65.72
2023-05-08T09:59:02.474Z,67.03
2023-05-08T10:00:02.471Z,68.27
2023-05-08T10:01:02.538Z,65.85
2023-05-08T10:02:02.483Z,66.12
2023-05-08T10:03:02.590Z,66.08
2023-05-08T10:04:02.531Z,66.32
2023-05-08T10:05:02.679Z,66.89
2023-05-08T10:06:02.435Z,66.05
2023-05-08T10:07:02.446Z,65.38
2023-05-08T10:08:02.426Z,64.95
2023-05-08T10:09:02.409Z,66.19
2023-05-08T10:10:02.468Z,69.08
2023-05-08T10:11:02.432Z,67.13
2023-05-08T10:12:02.431Z,67.43
2023-05-08T10:13:02.460Z,64.64
2023-05-08T10:14:02.431Z,64.54
2023-05-08T10:15:02.393Z,67.13
2023-05-08T10:16:02.396Z,63.84
2023-05-08T10:17:02.439Z,65.22
2023-05-08T10:18:02.448Z,66.33
2023-05-08T10:19:02.433Z,66.08
2023-05-08T10:20:02.425Z,66.52
2023-05-08T10:21:02.414Z,68.98
2023-05-08T10:22:02.393Z,68.98
2023-05-08T10:23:02.399Z,69.48
2023-05-08T10:24:02.370Z,69.58
2023-05-08T10:25:02.328Z,69.62
2023-05-08T10:26:02.348Z,69.51
2023-05-08T10:27:07.358Z,69.95
2023-05-08T10:28:04.309Z,70.86
2023-05-08T10:29:02.333Z,70.73
2023-05-08T10:30:02.292Z,70.73
2023-05-08T10:31:02.441Z,69.08
2023-05-08T10:32:02.280Z,69.92
2023-05-08T10:33:02.379Z,70.39
2023-05-08T10:34:02.273Z,68.47
2023-05-08T10:35:02.301Z,69.08
2023-05-08T10:36:02.271Z,70.39
2023-05-08T10:37:02.308Z,69.58
2023-05-08T10:38:02.246Z,71.37
2023-05-08T10:39:02.231Z,67.93
2023-05-08T10:40:02.264Z,72.98
2023-05-08T10:41:02.268Z,70.26
2023-05-08T10:42:02.214Z,69.04
2023-05-08T10:43:03.202Z,69.15
2023-05-08T10:44:03.517Z,69.28
2023-05-08T10:45:03.198Z,67.73
2023-05-08T10:46:02.258Z,69.68
2023-05-08T10:47:02.214Z,69.21
2023-05-08T10:48:02.217Z,67.80
2023-05-08T10:49:02.279Z,68.48
2023-05-08T10:50:02.181Z,67.70
2023-05-08T10:51:02.196Z,69.04
2023-05-08T10:52:02.186Z,68.84
2023-05-08T10:53:02.164Z,72.48
2023-05-08T10:54:02.142Z,69.04
2023-05-08T10:55:02.146Z,70.02
2023-05-08T10:56:02.165Z,69.11
2023-05-08T10:57:02.139Z,67.67
2023-05-08T10:58:02.127Z,68.48
2023-05-08T10:59:02.109Z,67.63
2023-05-08T11:00:02.194Z,68.44
2023-05-08T11:01:02.090Z,68.57
2023-05-08T11:02:02.149Z,67.43
2023-05-08T11:03:02.170Z,67.74
2023-05-08T11:04:02.143Z,68.61
2023-05-08T11:05:02.071Z,67.84
2023-05-08T11:06:03.068Z,67.03
2023-05-08T11:07:02.082Z,66.22
2023-05-08T11:08:02.054Z,67.74
2023-05-08T11:09:02.083Z,66.33
2023-05-08T11:10:02.078Z,66.73
2023-05-08T11:11:02.092Z,70.66
2023-05-08T11:12:02.030Z,67.13
2023-05-08T11:13:02.126Z,66.83
2023-05-08T11:14:02.010Z,66.25
2023-05-08T11:15:02.100Z,65.82
2023-05-08T11:16:02.043Z,67.40
2023-05-08T11:17:01.995Z,64.65
2023-05-08T11:18:02.024Z,66.06
2023-05-08T11:19:01.970Z,65.66
2023-05-08T11:20:02.013Z,63.34
2023-05-08T11:21:02.012Z,65.99
2023-05-08T11:22:01.958Z,64.51
2023-05-08T11:23:02.064Z,65.15
2023-05-08T11:24:01.951Z,65.72
2023-05-08T11:25:01.980Z,64.65
2023-05-08T11:26:01.957Z,64.65
2023-05-08T11:27:01.981Z,65.93
2023-05-08T11:28:01.936Z,67.74
2023-05-08T11:29:01.923Z,66.63
2023-05-08T11:30:01.971Z,65.22
2023-05-08T11:31:01.923Z,64.99
2023-05-08T11:32:02.060Z,67.71
2023-05-08T11:33:01.991Z,66.20
2023-05-08T11:34:01.892Z,64.56
2023-05-08T11:35:01.908Z,63.59
2023-05-08T11:36:01.901Z,65.09
2023-05-08T11:37:01.878Z,65.50
2023-05-08T11:38:01.864Z,66.03
2023-05-08T11:39:01.854Z,65.62
2023-05-08T11:40:01.849Z,63.82
2023-05-08T11:41:01.905Z,64.95
2023-05-08T11:42:01.839Z,65.56
2023-05-08T11:43:01.839Z,68.38
2023-05-08T11:44:01.847Z,66.87
2023-05-08T11:45:01.861Z,66.27
2023-05-08T11:46:01.851Z,64.95
2023-05-08T11:47:01.840Z,65.59
2023-05-08T11:48:01.994Z,67.60
2023-05-08T11:49:01.815Z,67.33
2023-05-08T11:50:01.804Z,68.11
2023-05-08T11:51:01.811Z,68.51
2023-05-08T11:52:01.942Z,67.47
2023-05-08T11:53:01.784Z,67.47
2023-05-08T11:54:01.759Z,65.93
2023-05-08T11:55:01.810Z,67.24
2023-05-08T11:56:01.779Z,67.64
2023-05-08T11:57:01.916Z,66.10
2023-05-08T11:58:01.760Z,65.73
2023-05-08T11:59:01.771Z,65.83
2023-05-08T12:00:01.728Z,64.02
2023-05-08T12:01:01.789Z,64.92
2023-05-08T12:02:08.693Z,64.49
2023-05-08T12:03:03.857Z,66.10
2023-05-08T12:04:02.091Z,66.80
2023-05-08T12:05:01.865Z,67.41
2023-05-08T12:06:01.728Z,65.09
2023-05-08T12:07:01.678Z,64.89
2023-05-08T12:08:01.762Z,65.80
2023-05-08T12:09:03.018Z,64.99
2023-05-08T12:10:01.670Z,65.02
2023-05-08T12:11:01.670Z,65.59
2023-05-08T12:12:01.691Z,65.19
2023-05-08T12:13:01.699Z,67.58
2023-05-08T12:14:01.658Z,66.77
2023-05-08T12:15:01.682Z,66.17
2023-05-08T12:16:01.652Z,65.56
2023-05-08T12:17:01.803Z,67.38
2023-05-08T12:18:02.743Z,65.77
2023-05-08T12:19:01.634Z,65.59
2023-05-08T12:20:01.643Z,65.59
2023-05-08T12:21:01.607Z,67.41
2023-05-08T12:22:01.608Z,67.21
2023-05-08T12:23:01.628Z,65.50
2023-05-08T12:24:01.646Z,65.77
2023-05-08T12:25:01.702Z,66.74
2023-05-08T12:26:01.603Z,67.44
2023-05-08T12:27:01.577Z,66.00
2023-05-08T12:28:01.577Z,67.51
2023-05-08T12:29:01.586Z,65.41
2023-05-08T12:30:02.683Z,67.18
2023-05-08T12:31:01.623Z,65.77
2023-05-08T12:32:01.546Z,66.08
2023-05-08T12:33:01.575Z,64.10
2023-05-08T12:34:01.577Z,64.80
2023-05-08T12:35:01.543Z,67.71
2023-05-08T12:36:01.557Z,66.08
2023-05-08T12:37:01.558Z,65.17
2023-05-08T12:38:01.563Z,66.11
2023-05-08T12:39:01.551Z,68.79
2023-05-08T12:40:01.572Z,66.05
2023-05-08T12:41:01.539Z,65.84
2023-05-08T12:42:01.549Z,65.14
2023-05-08T12:43:01.488Z,65.94
2023-05-08T12:44:01.501Z,67.55
2023-05-08T12:45:01.601Z,67.11
2023-05-08T12:46:01.597Z,67.08
2023-05-08T12:47:01.493Z,67.18
2023-05-08T12:48:01.487Z,67.99
2023-05-08T12:49:01.467Z,64.98
2023-05-08T12:50:01.501Z,68.46
2023-05-08T12:51:01.458Z,65.42
2023-05-08T12:52:01.442Z,64.31